Newport, RI

7:07 AM EDT on September 04, 2015 (GMT -0400)
NOS_NWLON | | Change Station
CLOSE
Current Station
Personal Weather Station
Location: Newport, RI
Elevation: 0 ft
Nearby Weather Stations

Elev 0 ft 41.51 °N, 71.33 °W | Updated 49 minutes ago

Haze
Haze
0.0 °F
Feels Like -14 °F
N
8.0
Wind Variable Wind from NNE
Gusts 11.0 mph

Today
High -- | Low -- °F
--% Chance of Precip.
Yesterday
High -- | Low -- °F
Precip. -- in
6:14 AM 7:13 PM
Waning Gibbous, 60% visible
Pressure 30.01 in
Visibility 5.0 miles
Clouds Few 9000 ft
Windchill -14 °F
Dew Point Not available.
Humidity Not available.
Rainfall in
Snow Depth Not available.
UV 0 out of 12
Pollen 7.90 out of 12
Air Quality Not available.
Flu Activity Not available.
METAR KUUU 041053Z AUTO 04011KT 5SM HZ FEW090 22/19 A3002 RMK AO2 SLP163 T02220194
Pressure 30.01 in
Visibility 5.0 miles
Clouds Few 9000 ft
Windchill -14 °F
Dew Point Not available.
Humidity Not available.
Rainfall in
Snow Depth Not available.
UV 0 out of 12
Pollen 7.90 out of 12
Air Quality Not available.
Flu Activity Not available.
METAR KUUU 041053Z AUTO 04011KT 5SM HZ FEW090 22/19 A3002 RMK AO2 SLP163 T02220194

10-Day Weather Forecast

×

Almanac

Astronomy

Sep. 04, 2015 Rise Set
Actual Time
Civil Twilight
Nautical Twilight
Astronomical Twilight
Moon
Length of Visible Light
Length of Day
Tomorrow will be .
, % of the Moon is Illuminated

Today's Extremes

State Highs State Lows

Community

WunderPhotos

Upload Photos

1,852,150 photos uploaded!

WunderBlogs® & News

Nearby

Air Quality

  Air Quality AQ Index Pollutant
Not available.

Snow Depth

Station Depth Elevation

Earthquake Activity

City Distance Mag. Time & Date
Minimum magnitude displayed is 2.5.

Coastal Water Temperatures

Place Temperature

Stations

Nearby Weather Stations

Station Location Temp. Windchill Dew Point Humidity Wind Precip. Elev Updated Type